createdAt,value
2023-10-26T05:01:04.706Z,98961.44
2023-10-26T05:04:19.103Z,98957.53
2023-10-26T05:07:35.161Z,98960.97
2023-10-26T05:10:52.870Z,98967.00
2023-10-26T05:14:06.181Z,98966.03
2023-10-26T05:17:11.132Z,98966.56
2023-10-26T05:20:17.368Z,98968.94
2023-10-26T05:23:32.472Z,98956.34
2023-10-26T05:26:48.518Z,98972.56
2023-10-26T05:29:54.608Z,98973.22
2023-10-26T05:33:15.491Z,98982.03
2023-10-26T05:36:36.313Z,98981.75
2023-10-26T05:40:38.691Z,98990.75
2023-10-26T05:44:06.582Z,99001.84
2023-10-26T05:47:38.591Z,98996.00
2023-10-26T05:51:06.192Z,99001.47
2023-10-26T05:54:31.882Z,98990.94
2023-10-26T05:57:46.645Z,98982.88
2023-10-26T06:00:52.555Z,99001.91
2023-10-26T06:17:06.428Z,99017.25
2023-10-26T06:20:38.351Z,99022.81
2023-10-26T06:24:02.016Z,99035.75
2023-10-26T06:27:17.287Z,99030.38
2023-10-26T06:30:33.353Z,99036.63
2023-10-26T06:34:12.022Z,99043.25
2023-10-26T06:37:39.411Z,99044.41
2023-10-26T06:41:09.126Z,99035.75
2023-10-26T06:44:36.348Z,99035.91
2023-10-26T06:48:19.798Z,99033.75
2023-10-26T06:53:00.067Z,99048.97
2023-10-26T07:02:16.437Z,99058.41
2023-10-26T07:06:10.605Z,99047.94
2023-10-26T07:09:41.115Z,99048.72
2023-10-26T07:13:23.279Z,99047.34
2023-10-26T07:16:42.984Z,99046.94
2023-10-26T07:19:59.461Z,99059.63
2023-10-26T07:33:34.582Z,99067.09
2023-10-26T07:36:45.670Z,99067.88
2023-10-26T07:40:29.384Z,99077.38
2023-10-26T07:43:35.752Z,99052.50
2023-10-26T07:46:57.165Z,99058.06
2023-10-26T07:50:18.811Z,99064.44
2023-10-26T07:53:30.616Z,99055.59
2023-10-26T07:56:55.531Z,99059.53
2023-10-26T09:17:02.562Z,99109.50
2023-10-26T09:20:26.732Z,99123.88
2023-10-26T09:24:48.629Z,99115.06
2023-10-26T09:28:19.774Z,99114.19
2023-10-26T09:32:02.932Z,99120.31
2023-10-26T09:42:06.567Z,99108.13
2023-10-26T09:46:31.965Z,99104.03
2023-10-26T09:50:07.139Z,99113.06
2023-10-26T09:53:25.919Z,99102.09
2023-10-26T09:57:00.938Z,99102.56
2023-10-26T10:00:23.574Z,99099.34
2023-10-26T10:04:03.482Z,99093.28
2023-10-26T10:07:57.514Z,99092.84
2023-10-26T10:11:40.199Z,99101.16
2023-10-26T10:15:40.343Z,99097.16
2023-10-26T10:39:38.672Z,99074.94
2023-10-26T10:43:11.316Z,99079.75
2023-10-26T10:46:30.741Z,99075.03
2023-10-26T10:49:49.323Z,99075.22
2023-10-26T10:53:10.137Z,99065.47
2023-10-26T10:56:25.733Z,99062.72
2023-10-26T10:59:36.385Z,99063.38
2023-10-26T11:03:09.626Z,99058.84
2023-10-26T11:06:24.202Z,99062.47
2023-10-26T11:09:49.420Z,99058.31
2023-10-26T11:13:03.697Z,99049.72
2023-10-26T11:16:24.505Z,99051.03
2023-10-26T11:19:38.624Z,99045.69
2023-10-26T11:22:48.845Z,99032.75
2023-10-26T11:51:09.864Z,99032.97
2023-10-26T11:54:27.041Z,99032.16
2023-10-26T11:57:43.629Z,99032.63
2023-10-26T12:00:53.026Z,99029.44
2023-10-26T12:04:25.668Z,99028.28
2023-10-26T12:08:01.138Z,99028.63
2023-10-26T12:11:11.037Z,99030.63
2023-10-26T12:14:15.862Z,99042.44
2023-10-26T12:17:32.545Z,99040.00
2023-10-26T12:20:44.070Z,99042.44
2023-10-26T12:23:55.168Z,99048.72
2023-10-26T12:27:06.148Z,99059.72
2023-10-26T12:30:13.045Z,99059.38
2023-10-26T12:33:22.242Z,99051.09
2023-10-26T12:36:33.907Z,99057.41
2023-10-26T12:39:39.242Z,99052.97
2023-10-26T12:42:55.175Z,99052.56
2023-10-26T12:46:06.095Z,99052.91
2023-10-26T12:49:25.757Z,99040.78
2023-10-26T12:52:49.554Z,99046.69
2023-10-26T12:56:25.964Z,99054.97
2023-10-26T12:59:42.759Z,99038.41
2023-10-26T13:02:47.478Z,99041.22
2023-10-26T13:05:57.096Z,99030.59
2023-10-26T13:09:03.552Z,99030.59
2023-10-26T13:12:18.198Z,99045.16
2023-10-26T13:15:34.603Z,99052.19
2023-10-26T13:18:40.235Z,99038.47
2023-10-26T13:21:57.955Z,99038.91
2023-10-26T13:25:04.259Z,99044.75
2023-10-26T13:28:08.318Z,99029.84
2023-10-26T13:31:32.845Z,99031.81
2023-10-26T13:34:51.083Z,99035.72
2023-10-26T13:38:17.019Z,99026.31
2023-10-26T13:41:34.976Z,99021.97
2023-10-26T13:44:53.717Z,99028.25
2023-10-26T13:48:18.731Z,99037.63
2023-10-26T13:51:48.995Z,99041.19
2023-10-26T13:54:53.881Z,99041.22
2023-10-26T13:58:13.485Z,99038.41
2023-10-26T14:01:34.722Z,99023.44
2023-10-26T14:04:50.895Z,99020.56
2023-10-26T14:08:13.603Z,99015.44
2023-10-26T14:11:30.406Z,99019.31
2023-10-26T14:14:59.281Z,99028.78
2023-10-26T14:18:21.428Z,99029.63
2023-10-26T14:21:45.938Z,99035.41
2023-10-26T14:25:04.551Z,99029.56
2023-10-26T14:28:07.833Z,99022.72
2023-10-26T14:31:12.108Z,99014.59
2023-10-26T14:34:26.764Z,99023.09
2023-10-26T14:37:31.129Z,99021.81
2023-10-26T14:40:47.413Z,99028.19
2023-10-26T14:43:56.769Z,99019.13
2023-10-26T14:47:02.220Z,99010.47
2023-10-26T14:50:11.536Z,99027.00
2023-10-26T14:53:38.702Z,99023.16
2023-10-26T14:56:51.765Z,99021.53
2023-10-26T14:59:57.621Z,99020.31
2023-10-26T15:03:13.893Z,99018.34
2023-10-26T15:06:38.751Z,99014.72
2023-10-26T15:10:19.985Z,99015.97
2023-10-26T15:13:22.538Z,99028.03
2023-10-26T15:16:27.966Z,99023.94
2023-10-26T15:19:36.611Z,99023.94
2023-10-26T15:22:43.038Z,99034.88
2023-10-26T15:25:47.595Z,99041.56
2023-10-26T15:29:09.772Z,99032.94
2023-10-26T15:32:25.937Z,99045.09
2023-10-26T15:35:44.995Z,99029.75
2023-10-26T15:38:49.419Z,99038.69
2023-10-26T15:41:57.124Z,99044.88
2023-10-26T15:45:15.910Z,99045.94
2023-10-26T15:49:30.973Z,99041.59
2023-10-26T15:52:05.435Z,99045.38
2023-10-26T15:55:19.375Z,99037.13
2023-10-26T15:58:34.758Z,99040.69
2023-10-26T16:01:58.630Z,99038.31
2023-10-26T16:05:32.459Z,99045.84
2023-10-26T16:09:24.467Z,99042.66
2023-10-26T16:12:57.790Z,99043.75
2023-10-26T16:16:19.147Z,99040.47
2023-10-26T16:19:32.951Z,99034.91
2023-10-26T16:22:46.828Z,99033.22
2023-10-26T16:26:03.557Z,99042.50
2023-10-26T16:29:23.514Z,99034.25
2023-10-26T16:32:53.618Z,99038.94
2023-10-26T16:35:58.403Z,99037.09
2023-10-26T16:39:01.831Z,99039.94
2023-10-26T16:42:11.123Z,99033.56
2023-10-26T16:45:16.014Z,99036.66
2023-10-26T16:48:21.929Z,99038.75
2023-10-26T16:51:29.443Z,99024.31
2023-10-26T16:54:46.644Z,99023.56
2023-10-26T16:58:04.277Z,99021.84
2023-10-26T17:01:20.536Z,99025.38
2023-10-26T17:04:27.969Z,99014.50
2023-10-26T17:07:32.731Z,99010.91
2023-10-26T17:10:54.693Z,99008.13
2023-10-26T17:14:04.368Z,99011.84
2023-10-26T17:17:20.605Z,99000.25
2023-10-26T17:20:25.336Z,98990.94
2023-10-26T17:23:36.007Z,98992.88
2023-10-26T17:26:47.525Z,98987.81
2023-10-26T17:29:51.493Z,98989.75
2023-10-26T17:32:54.776Z,98983.09
2023-10-26T17:36:10.495Z,98983.06
2023-10-26T17:39:33.385Z,98974.47
2023-10-26T17:42:56.569Z,98968.56
2023-10-26T17:46:17.730Z,98981.47
2023-10-26T17:49:43.457Z,98978.69
2023-10-26T17:52:51.750Z,98980.88
2023-10-26T17:56:03.235Z,98977.22
2023-10-26T17:59:06.406Z,98973.72
2023-10-26T18:02:26.129Z,98971.78
2023-10-26T18:05:48.990Z,98979.53
2023-10-26T18:09:10.696Z,98955.66
2023-10-26T18:12:33.349Z,98960.72
2023-10-26T18:15:42.899Z,98955.59
2023-10-26T18:19:07.400Z,98965.75
2023-10-26T18:22:29.955Z,98970.81
2023-10-26T18:25:46.775Z,98973.81
2023-10-26T18:29:10.268Z,98975.91
2023-10-26T18:32:27.707Z,98981.97
2023-10-26T18:35:32.909Z,99004.91
2023-10-26T18:38:39.943Z,99002.22
2023-10-26T18:41:54.098Z,99000.22
2023-10-26T18:45:11.348Z,98980.47
2023-10-26T18:48:32.508Z,98985.09
2023-10-26T18:51:52.224Z,99018.75
2023-10-26T18:55:20.390Z,98987.41
2023-10-26T18:58:43.424Z,98991.97
2023-10-26T19:02:09.251Z,98981.56
2023-10-26T19:05:15.752Z,98981.09
2023-10-26T19:08:27.449Z,98974.19
2023-10-26T19:11:31.359Z,98980.41
2023-10-26T19:14:48.872Z,98979.47
2023-10-26T19:18:00.814Z,98983.84
2023-10-26T19:21:13.834Z,98987.38
2023-10-26T19:24:17.309Z,98978.56
2023-10-26T19:27:33.406Z,98984.41
2023-10-26T19:30:36.753Z,98983.06
2023-10-26T19:33:46.849Z,98968.91
2023-10-26T19:36:54.635Z,98962.38
2023-10-26T19:40:09.311Z,98967.41
2023-10-26T19:43:33.074Z,98957.22
2023-10-26T19:46:53.339Z,98954.69
2023-10-26T19:50:20.280Z,98960.00
2023-10-26T19:53:42.959Z,98951.97
2023-10-26T19:57:04.985Z,98944.69
2023-10-26T20:00:18.002Z,98947.00
2023-10-26T20:03:27.848Z,98939.97
2023-10-26T20:06:47.265Z,98927.03
2023-10-26T20:10:17.134Z,98923.31
2023-10-26T20:13:46.207Z,98923.66
2023-10-26T20:17:10.032Z,98929.97
2023-10-26T20:20:34.134Z,98930.38
2023-10-26T20:23:56.827Z,98938.44
2023-10-26T20:27:17.015Z,98934.81
2023-10-26T20:30:39.134Z,98924.59
2023-10-26T20:34:00.367Z,98921.03
2023-10-26T20:37:11.994Z,98913.75
2023-10-26T20:40:17.262Z,98909.88
2023-10-26T20:43:38.063Z,98910.88
2023-10-26T20:46:49.507Z,98909.97
2023-10-26T20:49:59.677Z,98907.72
2023-10-26T20:53:22.901Z,98905.84
2023-10-26T20:56:45.899Z,98891.06
2023-10-26T21:00:02.401Z,98878.22
2023-10-26T21:03:30.992Z,98884.13
2023-10-26T21:06:55.895Z,98878.31
2023-10-26T21:10:22.983Z,98879.97
2023-10-26T21:13:39.626Z,98884.03
2023-10-26T21:16:49.946Z,98879.84
2023-10-26T21:20:09.362Z,98875.53
2023-10-26T21:23:34.909Z,98865.28
2023-10-26T21:26:38.630Z,98857.47
2023-10-26T21:29:45.652Z,98852.94
2023-10-26T21:32:52.683Z,98854.06
2023-10-26T21:35:58.517Z,98855.44
2023-10-26T21:39:02.166Z,98847.19
2023-10-26T21:42:12.652Z,98860.19
2023-10-26T21:45:16.702Z,98857.47
2023-10-26T21:48:23.321Z,98861.13
2023-10-26T21:51:32.466Z,98866.19
2023-10-26T21:54:46.315Z,98877.34
2023-10-26T21:57:50.076Z,98879.75
2023-10-26T22:00:54.614Z,98888.53
2023-10-26T22:04:20.850Z,98893.56
2023-10-26T22:07:37.770Z,98894.38
2023-10-26T22:11:04.688Z,98886.47
2023-10-26T22:14:26.639Z,98881.81
2023-10-26T22:17:48.760Z,98889.63
2023-10-26T22:21:13.667Z,98883.03
2023-10-26T22:24:17.774Z,98873.09
2023-10-26T22:27:21.898Z,98880.28
2023-10-26T22:30:32.762Z,98875.47
2023-10-26T22:33:58.754Z,98875.28
2023-10-26T22:37:05.559Z,98882.94
2023-10-26T22:40:13.748Z,98884.53
2023-10-26T22:43:25.000Z,98879.75
2023-10-26T22:46:46.735Z,98885.50
2023-10-26T22:49:56.720Z,98878.53
2023-10-26T22:53:02.376Z,98882.84
2023-10-26T22:56:05.771Z,98874.31
2023-10-26T22:59:22.172Z,98873.31
2023-10-26T23:02:25.709Z,98875.19
2023-10-26T23:05:32.415Z,98864.50
2023-10-26T23:08:40.636Z,98857.91
2023-10-26T23:12:03.752Z,98854.59
2023-10-26T23:15:23.719Z,98866.06
2023-10-26T23:18:27.202Z,98862.00
2023-10-26T23:21:32.516Z,98860.97
2023-10-26T23:24:46.510Z,98867.00
2023-10-26T23:27:56.286Z,98878.28
2023-10-26T23:31:16.580Z,98871.97
2023-10-26T23:34:32.851Z,98865.56
2023-10-26T23:38:02.549Z,98870.72
2023-10-26T23:41:17.421Z,98860.63
2023-10-26T23:44:21.554Z,98858.81
2023-10-26T23:47:32.207Z,98853.50
2023-10-26T23:50:42.078Z,98848.97
2023-10-26T23:54:02.592Z,98845.25
2023-10-26T23:57:15.745Z,98837.13
